sensor_id;sensor_type;location;lat;lon;timestamp;P1;durP1;ratioP1;P2;durP2;ratioP2
68234;SDS011;55052;52.056;5.296;2023-02-11T00:00:57;22.08;;;3.97;;
68234;SDS011;55052;52.056;5.296;2023-02-11T00:03:24;21.33;;;4.32;;
68234;SDS011;55052;52.056;5.296;2023-02-11T00:06:01;15.93;;;3.78;;
68234;SDS011;55052;52.056;5.296;2023-02-11T00:08:30;17.38;;;3.17;;
68234;SDS011;55052;52.056;5.296;2023-02-11T00:10:58;22.88;;;4.20;;
68234;SDS011;55052;52.056;5.296;2023-02-11T00:13:25;21.85;;;4.13;;
68234;SDS011;55052;52.056;5.296;2023-02-11T00:15:52;15.80;;;3.83;;
68234;SDS011;55052;52.056;5.296;2023-02-11T00:18:20;14.52;;;3.72;;
68234;SDS011;55052;52.056;5.296;2023-02-11T00:20:46;17.30;;;3.38;;
68234;SDS011;55052;52.056;5.296;2023-02-11T00:23:13;14.05;;;3.42;;
68234;SDS011;55052;52.056;5.296;2023-02-11T00:25:41;18.08;;;4.00;;
68234;SDS011;55052;52.056;5.296;2023-02-11T00:28:09;24.52;;;3.90;;
68234;SDS011;55052;52.056;5.296;2023-02-11T00:30:37;17.02;;;4.18;;
68234;SDS011;55052;52.056;5.296;2023-02-11T00:33:04;20.30;;;4.35;;
68234;SDS011;55052;52.056;5.296;2023-02-11T00:35:30;14.65;;;3.15;;
68234;SDS011;55052;52.056;5.296;2023-02-11T00:37:57;17.65;;;3.92;;
68234;SDS011;55052;52.056;5.296;2023-02-11T00:40:24;21.00;;;4.00;;
68234;SDS011;55052;52.056;5.296;2023-02-11T00:42:51;23.67;;;4.45;;
68234;SDS011;55052;52.056;5.296;2023-02-11T00:45:17;12.10;;;3.53;;
68234;SDS011;55052;52.056;5.296;2023-02-11T00:47:46;16.52;;;4.00;;
68234;SDS011;55052;52.056;5.296;2023-02-11T00:50:13;14.60;;;3.28;;
68234;SDS011;55052;52.056;5.296;2023-02-11T00:52:40;20.20;;;3.85;;
68234;SDS011;55052;52.056;5.296;2023-02-11T00:55:06;18.20;;;3.55;;
68234;SDS011;55052;52.056;5.296;2023-02-11T00:57:33;16.48;;;3.65;;
68234;SDS011;55052;52.056;5.296;2023-02-11T01:00:01;15.38;;;3.45;;
68234;SDS011;55052;52.056;5.296;2023-02-11T01:02:29;17.65;;;3.97;;
68234;SDS011;55052;52.056;5.296;2023-02-11T01:04:55;18.88;;;3.85;;
68234;SDS011;55052;52.056;5.296;2023-02-11T01:07:25;18.50;;;4.38;;
68234;SDS011;55052;52.056;5.296;2023-02-11T01:09:53;17.92;;;3.92;;
68234;SDS011;55052;52.056;5.296;2023-02-11T01:12:19;18.13;;;4.22;;
68234;SDS011;55052;52.056;5.296;2023-02-11T01:14:46;19.05;;;4.45;;
68234;SDS011;55052;52.056;5.296;2023-02-11T01:17:13;18.23;;;4.30;;
68234;SDS011;55052;52.056;5.296;2023-02-11T01:19:40;18.05;;;4.22;;
68234;SDS011;55052;52.056;5.296;2023-02-11T01:22:07;20.85;;;5.13;;
68234;SDS011;55052;52.056;5.296;2023-02-11T01:24:34;24.75;;;4.80;;
68234;SDS011;55052;52.056;5.296;2023-02-11T01:27:01;13.18;;;4.38;;
68234;SDS011;55052;52.056;5.296;2023-02-11T01:29:27;16.27;;;4.13;;
68234;SDS011;55052;52.056;5.296;2023-02-11T01:31:54;17.52;;;4.30;;
68234;SDS011;55052;52.056;5.296;2023-02-11T01:34:21;16.33;;;4.28;;
68234;SDS011;55052;52.056;5.296;2023-02-11T01:36:48;15.77;;;4.80;;
68234;SDS011;55052;52.056;5.296;2023-02-11T01:39:15;17.75;;;4.15;;
68234;SDS011;55052;52.056;5.296;2023-02-11T01:41:41;13.73;;;4.40;;
68234;SDS011;55052;52.056;5.296;2023-02-11T01:44:22;18.67;;;4.15;;
68234;SDS011;55052;52.056;5.296;2023-02-11T01:46:50;13.30;;;4.50;;
68234;SDS011;55052;52.056;5.296;2023-02-11T01:49:19;20.73;;;4.45;;
68234;SDS011;55052;52.056;5.296;2023-02-11T01:52:12;19.08;;;5.28;;
68234;SDS011;55052;52.056;5.296;2023-02-11T01:54:50;23.17;;;5.00;;
68234;SDS011;55052;52.056;5.296;2023-02-11T01:57:38;19.23;;;4.85;;
68234;SDS011;55052;52.056;5.296;2023-02-11T02:00:09;20.65;;;4.22;;
68234;SDS011;55052;52.056;5.296;2023-02-11T02:02:45;15.90;;;4.07;;
68234;SDS011;55052;52.056;5.296;2023-02-11T02:10:47;15.40;;;3.88;;
68234;SDS011;55052;52.056;5.296;2023-02-11T02:13:19;17.77;;;4.40;;
68234;SDS011;55052;52.056;5.296;2023-02-11T02:15:49;16.58;;;4.82;;
68234;SDS011;55052;52.056;5.296;2023-02-11T02:18:35;13.48;;;4.00;;
68234;SDS011;55052;52.056;5.296;2023-02-11T02:21:12;21.10;;;4.35;;
68234;SDS011;55052;52.056;5.296;2023-02-11T02:41:18;21.48;;;4.47;;
68234;SDS011;55052;52.056;5.296;2023-02-11T02:43:48;14.90;;;4.32;;
68234;SDS011;55052;52.056;5.296;2023-02-11T02:46:18;21.10;;;5.13;;
68234;SDS011;55052;52.056;5.296;2023-02-11T02:48:45;16.42;;;4.75;;
68234;SDS011;55052;52.056;5.296;2023-02-11T02:56:55;16.48;;;5.30;;
68234;SDS011;55052;52.056;5.296;2023-02-11T02:59:45;17.25;;;4.88;;
68234;SDS011;55052;52.056;5.296;2023-02-11T03:08:17;25.70;;;6.32;;
68234;SDS011;55052;52.056;5.296;2023-02-11T03:10:54;12.27;;;5.32;;
68234;SDS011;55052;52.056;5.296;2023-02-11T03:13:23;18.27;;;4.90;;
68234;SDS011;55052;52.056;5.296;2023-02-11T03:15:55;21.90;;;5.35;;
68234;SDS011;55052;52.056;5.296;2023-02-11T03:18:25;22.02;;;6.05;;
68234;SDS011;55052;52.056;5.296;2023-02-11T03:20:54;18.48;;;5.60;;
68234;SDS011;55052;52.056;5.296;2023-02-11T03:23:36;25.25;;;6.72;;
68234;SDS011;55052;52.056;5.296;2023-02-11T03:26:17;17.92;;;5.75;;
68234;SDS011;55052;52.056;5.296;2023-02-11T03:31:35;18.77;;;6.40;;
68234;SDS011;55052;52.056;5.296;2023-02-11T03:34:11;21.65;;;6.40;;
68234;SDS011;55052;52.056;5.296;2023-02-11T03:39:35;18.60;;;5.85;;
68234;SDS011;55052;52.056;5.296;2023-02-11T03:42:04;17.08;;;6.10;;
68234;SDS011;55052;52.056;5.296;2023-02-11T03:44:35;20.05;;;6.13;;
68234;SDS011;55052;52.056;5.296;2023-02-11T03:47:08;19.88;;;6.75;;
68234;SDS011;55052;52.056;5.296;2023-02-11T03:49:38;20.98;;;6.93;;
68234;SDS011;55052;52.056;5.296;2023-02-11T03:52:07;25.40;;;7.90;;
68234;SDS011;55052;52.056;5.296;2023-02-11T03:54:36;22.95;;;6.65;;
68234;SDS011;55052;52.056;5.296;2023-02-11T03:57:05;18.50;;;6.87;;
68234;SDS011;55052;52.056;5.296;2023-02-11T03:59:47;19.83;;;7.00;;
68234;SDS011;55052;52.056;5.296;2023-02-11T04:02:22;25.63;;;6.50;;
68234;SDS011;55052;52.056;5.296;2023-02-11T04:04:53;19.08;;;6.43;;
68234;SDS011;55052;52.056;5.296;2023-02-11T04:07:20;19.23;;;6.63;;
68234;SDS011;55052;52.056;5.296;2023-02-11T04:09:46;24.27;;;7.22;;
68234;SDS011;55052;52.056;5.296;2023-02-11T04:12:13;23.75;;;7.15;;
68234;SDS011;55052;52.056;5.296;2023-02-11T04:14:40;23.23;;;6.93;;
68234;SDS011;55052;52.056;5.296;2023-02-11T04:17:07;23.50;;;7.07;;
68234;SDS011;55052;52.056;5.296;2023-02-11T04:19:34;21.10;;;7.05;;
68234;SDS011;55052;52.056;5.296;2023-02-11T04:22:00;19.40;;;8.18;;
68234;SDS011;55052;52.056;5.296;2023-02-11T04:24:27;25.92;;;7.93;;
68234;SDS011;55052;52.056;5.296;2023-02-11T04:26:54;20.90;;;7.55;;
68234;SDS011;55052;52.056;5.296;2023-02-11T04:29:21;23.25;;;7.72;;
68234;SDS011;55052;52.056;5.296;2023-02-11T04:31:48;20.55;;;7.78;;
68234;SDS011;55052;52.056;5.296;2023-02-11T04:34:14;22.60;;;8.73;;
68234;SDS011;55052;52.056;5.296;2023-02-11T04:36:41;18.67;;;7.90;;
68234;SDS011;55052;52.056;5.296;2023-02-11T04:39:08;23.13;;;8.20;;
68234;SDS011;55052;52.056;5.296;2023-02-11T04:41:35;23.75;;;9.32;;
68234;SDS011;55052;52.056;5.296;2023-02-11T04:44:02;22.40;;;8.50;;
68234;SDS011;55052;52.056;5.296;2023-02-11T04:46:29;23.55;;;8.45;;
68234;SDS011;55052;52.056;5.296;2023-02-11T04:48:56;27.98;;;9.32;;
68234;SDS011;55052;52.056;5.296;2023-02-11T04:51:23;24.48;;;8.93;;
68234;SDS011;55052;52.056;5.296;2023-02-11T04:53:50;23.98;;;9.10;;
68234;SDS011;55052;52.056;5.296;2023-02-11T04:56:16;24.92;;;8.38;;
68234;SDS011;55052;52.056;5.296;2023-02-11T04:58:43;22.08;;;9.20;;
68234;SDS011;55052;52.056;5.296;2023-02-11T05:01:11;27.48;;;8.88;;
68234;SDS011;55052;52.056;5.296;2023-02-11T05:03:40;23.52;;;8.68;;
68234;SDS011;55052;52.056;5.296;2023-02-11T05:06:08;25.40;;;9.40;;
68234;SDS011;55052;52.056;5.296;2023-02-11T05:08:36;28.63;;;9.20;;
68234;SDS011;55052;52.056;5.296;2023-02-11T05:11:02;23.25;;;10.10;;
68234;SDS011;55052;52.056;5.296;2023-02-11T05:13:30;27.30;;;9.25;;
68234;SDS011;55052;52.056;5.296;2023-02-11T05:15:57;22.77;;;10.45;;
68234;SDS011;55052;52.056;5.296;2023-02-11T05:18:24;20.60;;;9.10;;
68234;SDS011;55052;52.056;5.296;2023-02-11T05:20:50;24.35;;;10.18;;
68234;SDS011;55052;52.056;5.296;2023-02-11T05:23:17;23.55;;;9.77;;
68234;SDS011;55052;52.056;5.296;2023-02-11T05:25:44;25.08;;;9.43;;
68234;SDS011;55052;52.056;5.296;2023-02-11T05:28:10;31.77;;;10.25;;
68234;SDS011;55052;52.056;5.296;2023-02-11T05:30:37;22.98;;;9.90;;
68234;SDS011;55052;52.056;5.296;2023-02-11T05:33:04;24.38;;;9.55;;
68234;SDS011;55052;52.056;5.296;2023-02-11T05:35:31;23.88;;;10.50;;
68234;SDS011;55052;52.056;5.296;2023-02-11T05:37:57;26.38;;;9.65;;
68234;SDS011;55052;52.056;5.296;2023-02-11T05:40:24;29.63;;;10.52;;
68234;SDS011;55052;52.056;5.296;2023-02-11T05:42:51;26.90;;;10.45;;
68234;SDS011;55052;52.056;5.296;2023-02-11T05:45:18;26.80;;;10.20;;
68234;SDS011;55052;52.056;5.296;2023-02-11T05:47:44;31.73;;;11.20;;
68234;SDS011;55052;52.056;5.296;2023-02-11T05:50:11;29.38;;;10.93;;
68234;SDS011;55052;52.056;5.296;2023-02-11T05:52:38;28.30;;;11.30;;
68234;SDS011;55052;52.056;5.296;2023-02-11T05:55:05;35.20;;;11.68;;
68234;SDS011;55052;52.056;5.296;2023-02-11T05:57:32;28.13;;;11.63;;
68234;SDS011;55052;52.056;5.296;2023-02-11T05:59:59;27.23;;;11.07;;
68234;SDS011;55052;52.056;5.296;2023-02-11T06:02:26;32.35;;;11.07;;
68234;SDS011;55052;52.056;5.296;2023-02-11T06:04:53;25.60;;;10.55;;
68234;SDS011;55052;52.056;5.296;2023-02-11T06:07:19;23.92;;;10.80;;
68234;SDS011;55052;52.056;5.296;2023-02-11T06:09:46;28.60;;;11.85;;
68234;SDS011;55052;52.056;5.296;2023-02-11T06:12:13;29.73;;;12.40;;
68234;SDS011;55052;52.056;5.296;2023-02-11T06:14:40;26.63;;;11.60;;
68234;SDS011;55052;52.056;5.296;2023-02-11T06:17:07;28.05;;;11.73;;
68234;SDS011;55052;52.056;5.296;2023-02-11T06:19:34;29.15;;;11.38;;
68234;SDS011;55052;52.056;5.296;2023-02-11T06:22:01;27.27;;;11.60;;
68234;SDS011;55052;52.056;5.296;2023-02-11T06:24:27;29.05;;;11.93;;
68234;SDS011;55052;52.056;5.296;2023-02-11T06:27:14;28.98;;;11.98;;
68234;SDS011;55052;52.056;5.296;2023-02-11T06:29:41;32.50;;;12.23;;
68234;SDS011;55052;52.056;5.296;2023-02-11T06:32:07;26.25;;;11.90;;
68234;SDS011;55052;52.056;5.296;2023-02-11T06:34:54;31.33;;;12.35;;
68234;SDS011;55052;52.056;5.296;2023-02-11T06:37:21;27.70;;;12.13;;
68234;SDS011;55052;52.056;5.296;2023-02-11T06:39:48;32.38;;;12.23;;
68234;SDS011;55052;52.056;5.296;2023-02-11T06:42:15;32.45;;;12.43;;
68234;SDS011;55052;52.056;5.296;2023-02-11T06:44:41;31.17;;;11.57;;
68234;SDS011;55052;52.056;5.296;2023-02-11T06:47:09;25.85;;;11.95;;
68234;SDS011;55052;52.056;5.296;2023-02-11T06:49:36;31.67;;;12.85;;
68234;SDS011;55052;52.056;5.296;2023-02-11T06:52:03;29.45;;;12.77;;
68234;SDS011;55052;52.056;5.296;2023-02-11T06:54:30;29.63;;;12.85;;
68234;SDS011;55052;52.056;5.296;2023-02-11T06:56:56;35.55;;;12.93;;
68234;SDS011;55052;52.056;5.296;2023-02-11T06:59:23;30.90;;;12.43;;
68234;SDS011;55052;52.056;5.296;2023-02-11T07:01:50;31.08;;;12.60;;
68234;SDS011;55052;52.056;5.296;2023-02-11T07:04:17;28.63;;;12.32;;
68234;SDS011;55052;52.056;5.296;2023-02-11T07:06:44;28.00;;;12.20;;
68234;SDS011;55052;52.056;5.296;2023-02-11T07:09:11;33.67;;;12.93;;
68234;SDS011;55052;52.056;5.296;2023-02-11T07:11:37;25.35;;;12.60;;
68234;SDS011;55052;52.056;5.296;2023-02-11T07:14:05;30.17;;;13.27;;
68234;SDS011;55052;52.056;5.296;2023-02-11T07:16:35;32.92;;;13.63;;
68234;SDS011;55052;52.056;5.296;2023-02-11T07:19:04;32.30;;;13.65;;
68234;SDS011;55052;52.056;5.296;2023-02-11T07:21:31;29.98;;;12.63;;
68234;SDS011;55052;52.056;5.296;2023-02-11T07:23:57;31.30;;;12.93;;
68234;SDS011;55052;52.056;5.296;2023-02-11T07:26:24;29.52;;;13.77;;
68234;SDS011;55052;52.056;5.296;2023-02-11T07:28:51;24.33;;;12.65;;
68234;SDS011;55052;52.056;5.296;2023-02-11T07:31:25;28.85;;;13.27;;
68234;SDS011;55052;52.056;5.296;2023-02-11T07:33:54;29.52;;;12.80;;
68234;SDS011;55052;52.056;5.296;2023-02-11T07:36:23;39.50;;;14.82;;
68234;SDS011;55052;52.056;5.296;2023-02-11T07:38:50;30.83;;;13.30;;
68234;SDS011;55052;52.056;5.296;2023-02-11T07:41:18;27.25;;;12.82;;
68234;SDS011;55052;52.056;5.296;2023-02-11T07:43:47;32.75;;;14.20;;
68234;SDS011;55052;52.056;5.296;2023-02-11T07:46:18;31.85;;;13.20;;
68234;SDS011;55052;52.056;5.296;2023-02-11T07:48:48;34.75;;;12.95;;
68234;SDS011;55052;52.056;5.296;2023-02-11T07:51:19;31.13;;;13.85;;
68234;SDS011;55052;52.056;5.296;2023-02-11T07:53:48;27.50;;;12.52;;
68234;SDS011;55052;52.056;5.296;2023-02-11T07:56:15;29.23;;;13.02;;
68234;SDS011;55052;52.056;5.296;2023-02-11T07:58:43;30.92;;;13.68;;
68234;SDS011;55052;52.056;5.296;2023-02-11T08:01:12;30.23;;;13.98;;
68234;SDS011;55052;52.056;5.296;2023-02-11T08:03:47;36.45;;;14.48;;
68234;SDS011;55052;52.056;5.296;2023-02-11T08:06:15;26.67;;;12.77;;
68234;SDS011;55052;52.056;5.296;2023-02-11T08:08:43;31.75;;;14.10;;
68234;SDS011;55052;52.056;5.296;2023-02-11T08:11:12;29.10;;;13.85;;
68234;SDS011;55052;52.056;5.296;2023-02-11T08:13:44;27.48;;;12.93;;
68234;SDS011;55052;52.056;5.296;2023-02-11T08:16:25;33.67;;;14.50;;
68234;SDS011;55052;52.056;5.296;2023-02-11T08:18:57;26.48;;;13.05;;
68234;SDS011;55052;52.056;5.296;2023-02-11T08:21:26;30.98;;;13.75;;
68234;SDS011;55052;52.056;5.296;2023-02-11T08:23:54;28.98;;;14.13;;
68234;SDS011;55052;52.056;5.296;2023-02-11T08:26:23;35.25;;;15.55;;
68234;SDS011;55052;52.056;5.296;2023-02-11T08:28:54;32.53;;;14.40;;
68234;SDS011;55052;52.056;5.296;2023-02-11T08:31:26;28.48;;;14.52;;
68234;SDS011;55052;52.056;5.296;2023-02-11T08:33:56;27.50;;;14.77;;
68234;SDS011;55052;52.056;5.296;2023-02-11T08:36:27;24.83;;;13.50;;
68234;SDS011;55052;52.056;5.296;2023-02-11T08:38:56;31.65;;;14.20;;
68234;SDS011;55052;52.056;5.296;2023-02-11T08:41:44;33.05;;;14.15;;
68234;SDS011;55052;52.056;5.296;2023-02-11T08:44:13;36.70;;;15.65;;
68234;SDS011;55052;52.056;5.296;2023-02-11T08:46:40;35.60;;;14.38;;
68234;SDS011;55052;52.056;5.296;2023-02-11T08:49:07;32.60;;;15.43;;
68234;SDS011;55052;52.056;5.296;2023-02-11T08:51:34;31.00;;;15.05;;
68234;SDS011;55052;52.056;5.296;2023-02-11T08:54:01;33.05;;;15.35;;
68234;SDS011;55052;52.056;5.296;2023-02-11T08:56:27;32.22;;;15.18;;
68234;SDS011;55052;52.056;5.296;2023-02-11T08:58:56;34.30;;;14.98;;
68234;SDS011;55052;52.056;5.296;2023-02-11T09:01:24;32.45;;;16.15;;
68234;SDS011;55052;52.056;5.296;2023-02-11T09:03:53;31.77;;;16.00;;
68234;SDS011;55052;52.056;5.296;2023-02-11T09:06:21;30.08;;;15.55;;
68234;SDS011;55052;52.056;5.296;2023-02-11T09:08:50;32.22;;;15.60;;
68234;SDS011;55052;52.056;5.296;2023-02-11T09:11:19;34.03;;;16.80;;
68234;SDS011;55052;52.056;5.296;2023-02-11T09:13:49;31.35;;;16.17;;
68234;SDS011;55052;52.056;5.296;2023-02-11T09:16:20;35.47;;;17.40;;
68234;SDS011;55052;52.056;5.296;2023-02-11T09:18:49;30.23;;;15.83;;
68234;SDS011;55052;52.056;5.296;2023-02-11T09:21:16;32.15;;;16.92;;
68234;SDS011;55052;52.056;5.296;2023-02-11T09:23:44;32.47;;;16.55;;
68234;SDS011;55052;52.056;5.296;2023-02-11T09:26:14;33.95;;;16.13;;
68234;SDS011;55052;52.056;5.296;2023-02-11T09:28:45;41.30;;;17.48;;
68234;SDS011;55052;52.056;5.296;2023-02-11T09:31:17;38.25;;;16.27;;
68234;SDS011;55052;52.056;5.296;2023-02-11T09:33:47;34.67;;;16.45;;
68234;SDS011;55052;52.056;5.296;2023-02-11T09:36:17;32.40;;;16.58;;
68234;SDS011;55052;52.056;5.296;2023-02-11T09:38:46;30.20;;;15.03;;
68234;SDS011;55052;52.056;5.296;2023-02-11T09:43:56;34.58;;;16.50;;
68234;SDS011;55052;52.056;5.296;2023-02-11T09:46:26;30.42;;;16.95;;
68234;SDS011;55052;52.056;5.296;2023-02-11T09:48:57;36.88;;;16.85;;
68234;SDS011;55052;52.056;5.296;2023-02-11T09:54:28;34.15;;;16.13;;
68234;SDS011;55052;52.056;5.296;2023-02-11T09:57:01;32.13;;;16.40;;
68234;SDS011;55052;52.056;5.296;2023-02-11T09:59:28;30.00;;;16.20;;
68234;SDS011;55052;52.056;5.296;2023-02-11T10:07:29;33.22;;;16.65;;
68234;SDS011;55052;52.056;5.296;2023-02-11T10:21:44;30.17;;;16.20;;
68234;SDS011;55052;52.056;5.296;2023-02-11T10:24:38;33.72;;;17.23;;
68234;SDS011;55052;52.056;5.296;2023-02-11T10:27:13;29.85;;;16.48;;
68234;SDS011;55052;52.056;5.296;2023-02-11T10:29:45;39.55;;;16.85;;
68234;SDS011;55052;52.056;5.296;2023-02-11T10:32:23;34.63;;;15.95;;
68234;SDS011;55052;52.056;5.296;2023-02-11T10:35:17;27.88;;;15.70;;
68234;SDS011;55052;52.056;5.296;2023-02-11T10:37:47;30.58;;;15.63;;
68234;SDS011;55052;52.056;5.296;2023-02-11T10:40:24;30.50;;;15.55;;
68234;SDS011;55052;52.056;5.296;2023-02-11T10:42:54;31.65;;;16.55;;
68234;SDS011;55052;52.056;5.296;2023-02-11T10:45:31;34.45;;;15.68;;
68234;SDS011;55052;52.056;5.296;2023-02-11T10:48:03;28.48;;;15.40;;
68234;SDS011;55052;52.056;5.296;2023-02-11T10:50:53;29.65;;;14.77;;
68234;SDS011;55052;52.056;5.296;2023-02-11T10:53:39;33.38;;;16.77;;
68234;SDS011;55052;52.056;5.296;2023-02-11T10:56:07;28.30;;;15.10;;
68234;SDS011;55052;52.056;5.296;2023-02-11T11:01:40;28.17;;;16.10;;
68234;SDS011;55052;52.056;5.296;2023-02-11T11:04:22;31.60;;;15.65;;
68234;SDS011;55052;52.056;5.296;2023-02-11T11:06:56;27.77;;;14.75;;
68234;SDS011;55052;52.056;5.296;2023-02-11T11:09:42;25.02;;;13.63;;
68234;SDS011;55052;52.056;5.296;2023-02-11T11:12:31;26.88;;;14.57;;
68234;SDS011;55052;52.056;5.296;2023-02-11T11:15:02;27.42;;;13.43;;
68234;SDS011;55052;52.056;5.296;2023-02-11T11:17:43;24.58;;;12.68;;
68234;SDS011;55052;52.056;5.296;2023-02-11T11:20:15;24.85;;;12.88;;
68234;SDS011;55052;52.056;5.296;2023-02-11T11:22:48;25.42;;;13.45;;
68234;SDS011;55052;52.056;5.296;2023-02-11T11:25:20;27.25;;;13.30;;
68234;SDS011;55052;52.056;5.296;2023-02-11T11:27:48;26.67;;;13.32;;
68234;SDS011;55052;52.056;5.296;2023-02-11T11:30:16;25.55;;;12.57;;
68234;SDS011;55052;52.056;5.296;2023-02-11T11:32:44;25.02;;;12.77;;
68234;SDS011;55052;52.056;5.296;2023-02-11T11:35:22;24.98;;;12.18;;
68234;SDS011;55052;52.056;5.296;2023-02-11T11:37:53;21.52;;;12.20;;
68234;SDS011;55052;52.056;5.296;2023-02-11T11:40:27;22.20;;;12.32;;
68234;SDS011;55052;52.056;5.296;2023-02-11T11:45:30;24.85;;;13.45;;
68234;SDS011;55052;52.056;5.296;2023-02-11T11:50:44;23.13;;;11.88;;
68234;SDS011;55052;52.056;5.296;2023-02-11T11:56:04;21.42;;;11.68;;
68234;SDS011;55052;52.056;5.296;2023-02-11T11:58:38;20.90;;;11.18;;
68234;SDS011;55052;52.056;5.296;2023-02-11T12:01:49;23.80;;;11.23;;
68234;SDS011;55052;52.056;5.296;2023-02-11T12:07:01;19.38;;;11.20;;
68234;SDS011;55052;52.056;5.296;2023-02-11T12:12:48;19.45;;;10.77;;
68234;SDS011;55052;52.056;5.296;2023-02-11T12:18:14;21.50;;;13.35;;
68234;SDS011;55052;52.056;5.296;2023-02-11T12:20:57;23.52;;;12.50;;
68234;SDS011;55052;52.056;5.296;2023-02-11T12:38:37;22.55;;;12.60;;
68234;SDS011;55052;52.056;5.296;2023-02-11T12:51:55;24.20;;;13.15;;
68234;SDS011;55052;52.056;5.296;2023-02-11T12:54:45;22.63;;;12.43;;
68234;SDS011;55052;52.056;5.296;2023-02-11T12:57:18;25.13;;;11.98;;
68234;SDS011;55052;52.056;5.296;2023-02-11T13:05:26;21.83;;;11.45;;
68234;SDS011;55052;52.056;5.296;2023-02-11T13:08:28;18.45;;;9.55;;
68234;SDS011;55052;52.056;5.296;2023-02-11T13:11:00;12.25;;;7.00;;
68234;SDS011;55052;52.056;5.296;2023-02-11T13:24:56;13.88;;;6.38;;
68234;SDS011;55052;52.056;5.296;2023-02-11T13:30:25;12.10;;;6.25;;
68234;SDS011;55052;52.056;5.296;2023-02-11T13:37:53;10.85;;;6.35;;
68234;SDS011;55052;52.056;5.296;2023-02-11T13:40:29;9.73;;;6.75;;
68234;SDS011;55052;52.056;5.296;2023-02-11T13:43:02;10.55;;;5.70;;
68234;SDS011;55052;52.056;5.296;2023-02-11T13:50:45;17.70;;;6.00;;
68234;SDS011;55052;52.056;5.296;2023-02-11T13:53:14;12.48;;;6.68;;
68234;SDS011;55052;52.056;5.296;2023-02-11T13:55:52;11.82;;;6.50;;
68234;SDS011;55052;52.056;5.296;2023-02-11T13:58:33;13.68;;;7.03;;
68234;SDS011;55052;52.056;5.296;2023-02-11T14:01:05;10.52;;;6.20;;
68234;SDS011;55052;52.056;5.296;2023-02-11T14:03:34;9.90;;;6.63;;
68234;SDS011;55052;52.056;5.296;2023-02-11T14:06:24;11.40;;;6.68;;
68234;SDS011;55052;52.056;5.296;2023-02-11T14:11:48;14.05;;;6.60;;
68234;SDS011;55052;52.056;5.296;2023-02-11T14:17:15;10.95;;;6.28;;
68234;SDS011;55052;52.056;5.296;2023-02-11T14:19:44;12.45;;;6.45;;
68234;SDS011;55052;52.056;5.296;2023-02-11T14:22:21;15.95;;;6.75;;
68234;SDS011;55052;52.056;5.296;2023-02-11T14:24:53;12.45;;;5.82;;
68234;SDS011;55052;52.056;5.296;2023-02-11T14:27:27;12.95;;;5.90;;
68234;SDS011;55052;52.056;5.296;2023-02-11T14:35:15;12.40;;;6.10;;
68234;SDS011;55052;52.056;5.296;2023-02-11T14:43:35;12.93;;;6.32;;
68234;SDS011;55052;52.056;5.296;2023-02-11T14:46:17;11.10;;;5.70;;
68234;SDS011;55052;52.056;5.296;2023-02-11T14:48:45;12.10;;;6.50;;
68234;SDS011;55052;52.056;5.296;2023-02-11T14:56:23;9.13;;;5.68;;
68234;SDS011;55052;52.056;5.296;2023-02-11T14:58:53;14.82;;;6.40;;
68234;SDS011;55052;52.056;5.296;2023-02-11T15:01:31;10.30;;;5.65;;
68234;SDS011;55052;52.056;5.296;2023-02-11T15:04:02;12.45;;;5.53;;
68234;SDS011;55052;52.056;5.296;2023-02-11T15:06:39;11.30;;;5.35;;
68234;SDS011;55052;52.056;5.296;2023-02-11T15:12:15;9.25;;;5.43;;
68234;SDS011;55052;52.056;5.296;2023-02-11T15:14:51;12.55;;;5.30;;
68234;SDS011;55052;52.056;5.296;2023-02-11T15:17:24;9.10;;;5.10;;
68234;SDS011;55052;52.056;5.296;2023-02-11T15:19:54;11.95;;;6.20;;
68234;SDS011;55052;52.056;5.296;2023-02-11T15:22:25;15.02;;;6.20;;
68234;SDS011;55052;52.056;5.296;2023-02-11T15:24:59;13.18;;;6.57;;
68234;SDS011;55052;52.056;5.296;2023-02-11T15:27:38;11.95;;;6.15;;
68234;SDS011;55052;52.056;5.296;2023-02-11T15:32:47;10.45;;;6.53;;
68234;SDS011;55052;52.056;5.296;2023-02-11T15:35:15;14.95;;;6.25;;
68234;SDS011;55052;52.056;5.296;2023-02-11T15:37:43;13.82;;;6.60;;
68234;SDS011;55052;52.056;5.296;2023-02-11T15:40:22;11.15;;;6.03;;
68234;SDS011;55052;52.056;5.296;2023-02-11T15:42:57;12.48;;;6.60;;
68234;SDS011;55052;52.056;5.296;2023-02-11T15:45:32;12.63;;;6.68;;
68234;SDS011;55052;52.056;5.296;2023-02-11T15:48:07;12.00;;;7.13;;
68234;SDS011;55052;52.056;5.296;2023-02-11T15:50:38;16.30;;;7.85;;
68234;SDS011;55052;52.056;5.296;2023-02-11T15:55:49;11.48;;;6.80;;
68234;SDS011;55052;52.056;5.296;2023-02-11T15:58:17;12.93;;;6.38;;
68234;SDS011;55052;52.056;5.296;2023-02-11T16:00:45;13.95;;;6.32;;
68234;SDS011;55052;52.056;5.296;2023-02-11T16:03:19;13.95;;;6.88;;
68234;SDS011;55052;52.056;5.296;2023-02-11T16:05:48;13.75;;;6.38;;
68234;SDS011;55052;52.056;5.296;2023-02-11T16:08:19;12.95;;;6.20;;
68234;SDS011;55052;52.056;5.296;2023-02-11T16:10:57;11.15;;;6.70;;
68234;SDS011;55052;52.056;5.296;2023-02-11T16:13:55;17.13;;;7.70;;
68234;SDS011;55052;52.056;5.296;2023-02-11T16:16:21;13.43;;;7.60;;
68234;SDS011;55052;52.056;5.296;2023-02-11T16:18:55;16.05;;;7.55;;
68234;SDS011;55052;52.056;5.296;2023-02-11T16:21:32;13.48;;;6.80;;
68234;SDS011;55052;52.056;5.296;2023-02-11T16:24:04;12.38;;;6.28;;
68234;SDS011;55052;52.056;5.296;2023-02-11T16:26:45;15.52;;;5.82;;
68234;SDS011;55052;52.056;5.296;2023-02-11T16:29:15;13.88;;;7.00;;
68234;SDS011;55052;52.056;5.296;2023-02-11T16:31:47;17.00;;;6.97;;
68234;SDS011;55052;52.056;5.296;2023-02-11T16:36:44;15.13;;;6.65;;
68234;SDS011;55052;52.056;5.296;2023-02-11T16:39:11;16.50;;;7.95;;
68234;SDS011;55052;52.056;5.296;2023-02-11T16:41:38;16.58;;;7.15;;
68234;SDS011;55052;52.056;5.296;2023-02-11T16:44:05;17.08;;;8.15;;
68234;SDS011;55052;52.056;5.296;2023-02-11T16:46:32;19.83;;;8.18;;
68234;SDS011;55052;52.056;5.296;2023-02-11T16:49:07;17.75;;;9.20;;
68234;SDS011;55052;52.056;5.296;2023-02-11T16:51:37;17.30;;;8.38;;
68234;SDS011;55052;52.056;5.296;2023-02-11T16:54:08;15.52;;;8.07;;
68234;SDS011;55052;52.056;5.296;2023-02-11T16:56:40;12.20;;;7.57;;
68234;SDS011;55052;52.056;5.296;2023-02-11T16:59:07;14.32;;;6.65;;
68234;SDS011;55052;52.056;5.296;2023-02-11T17:01:36;11.85;;;6.50;;
68234;SDS011;55052;52.056;5.296;2023-02-11T17:04:05;12.40;;;6.63;;
68234;SDS011;55052;52.056;5.296;2023-02-11T17:06:32;12.57;;;6.55;;
68234;SDS011;55052;52.056;5.296;2023-02-11T17:09:00;11.52;;;7.00;;
68234;SDS011;55052;52.056;5.296;2023-02-11T17:11:26;12.63;;;5.90;;
68234;SDS011;55052;52.056;5.296;2023-02-11T17:13:53;14.25;;;7.78;;
68234;SDS011;55052;52.056;5.296;2023-02-11T17:16:21;12.45;;;6.93;;
68234;SDS011;55052;52.056;5.296;2023-02-11T17:18:50;11.02;;;6.55;;
68234;SDS011;55052;52.056;5.296;2023-02-11T17:21:16;12.50;;;5.88;;
68234;SDS011;55052;52.056;5.296;2023-02-11T17:23:43;13.88;;;6.90;;
68234;SDS011;55052;52.056;5.296;2023-02-11T17:26:11;15.30;;;6.45;;
68234;SDS011;55052;52.056;5.296;2023-02-11T17:28:38;12.82;;;6.88;;
68234;SDS011;55052;52.056;5.296;2023-02-11T17:31:07;13.45;;;6.32;;
68234;SDS011;55052;52.056;5.296;2023-02-11T17:33:35;11.57;;;7.10;;
68234;SDS011;55052;52.056;5.296;2023-02-11T17:36:06;13.60;;;7.25;;
68234;SDS011;55052;52.056;5.296;2023-02-11T17:38:34;13.13;;;7.13;;
68234;SDS011;55052;52.056;5.296;2023-02-11T17:41:03;13.48;;;7.20;;